sensor_id;sensor_type;location;lat;lon;timestamp;P1;durP1;ratioP1;P2;durP2;ratioP2
4555;SDS011;2290;48.674;9.018;2022-12-07T00:01:20;5.13;;;3.23;;
4555;SDS011;2290;48.674;9.018;2022-12-07T00:03:50;6.60;;;4.10;;
4555;SDS011;2290;48.674;9.018;2022-12-07T00:06:19;7.23;;;4.43;;
4555;SDS011;2290;48.674;9.018;2022-12-07T00:08:45;6.10;;;3.40;;
4555;SDS011;2290;48.674;9.018;2022-12-07T00:11:13;4.90;;;3.27;;
4555;SDS011;2290;48.674;9.018;2022-12-07T00:13:43;5.90;;;3.80;;
4555;SDS011;2290;48.674;9.018;2022-12-07T00:16:11;6.00;;;3.10;;
4555;SDS011;2290;48.674;9.018;2022-12-07T00:18:41;7.37;;;3.60;;
4555;SDS011;2290;48.674;9.018;2022-12-07T00:21:09;5.07;;;3.20;;
4555;SDS011;2290;48.674;9.018;2022-12-07T00:23:46;6.77;;;3.67;;
4555;SDS011;2290;48.674;9.018;2022-12-07T00:26:15;10.03;;;3.97;;
4555;SDS011;2290;48.674;9.018;2022-12-07T00:28:50;5.33;;;2.90;;
4555;SDS011;2290;48.674;9.018;2022-12-07T00:31:21;7.50;;;3.70;;
4555;SDS011;2290;48.674;9.018;2022-12-07T00:33:48;6.77;;;3.50;;
4555;SDS011;2290;48.674;9.018;2022-12-07T00:36:16;9.33;;;4.20;;
4555;SDS011;2290;48.674;9.018;2022-12-07T00:38:45;8.10;;;4.43;;
4555;SDS011;2290;48.674;9.018;2022-12-07T00:41:15;5.90;;;3.40;;
4555;SDS011;2290;48.674;9.018;2022-12-07T00:43:43;4.77;;;2.93;;
4555;SDS011;2290;48.674;9.018;2022-12-07T00:46:11;6.43;;;3.60;;
4555;SDS011;2290;48.674;9.018;2022-12-07T00:48:38;5.47;;;3.43;;
4555;SDS011;2290;48.674;9.018;2022-12-07T00:51:04;8.00;;;3.73;;
4555;SDS011;2290;48.674;9.018;2022-12-07T00:53:31;7.20;;;4.07;;
4555;SDS011;2290;48.674;9.018;2022-12-07T00:56:04;5.67;;;3.47;;
4555;SDS011;2290;48.674;9.018;2022-12-07T00:58:30;5.50;;;3.40;;
4555;SDS011;2290;48.674;9.018;2022-12-07T01:00:56;4.80;;;3.20;;
4555;SDS011;2290;48.674;9.018;2022-12-07T01:03:26;6.63;;;3.43;;
4555;SDS011;2290;48.674;9.018;2022-12-07T01:05:52;5.33;;;3.07;;
4555;SDS011;2290;48.674;9.018;2022-12-07T01:08:19;5.20;;;3.30;;
4555;SDS011;2290;48.674;9.018;2022-12-07T01:10:45;7.47;;;3.73;;
4555;SDS011;2290;48.674;9.018;2022-12-07T01:13:11;6.93;;;3.70;;
4555;SDS011;2290;48.674;9.018;2022-12-07T01:15:40;5.40;;;3.70;;
4555;SDS011;2290;48.674;9.018;2022-12-07T01:18:07;5.13;;;4.13;;
4555;SDS011;2290;48.674;9.018;2022-12-07T01:20:32;7.60;;;3.70;;
4555;SDS011;2290;48.674;9.018;2022-12-07T01:22:58;7.10;;;4.30;;
4555;SDS011;2290;48.674;9.018;2022-12-07T01:25:25;7.10;;;4.00;;
4555;SDS011;2290;48.674;9.018;2022-12-07T01:27:52;10.30;;;4.00;;
4555;SDS011;2290;48.674;9.018;2022-12-07T01:30:17;8.17;;;4.63;;
4555;SDS011;2290;48.674;9.018;2022-12-07T01:32:43;11.80;;;4.53;;
4555;SDS011;2290;48.674;9.018;2022-12-07T01:35:09;6.73;;;4.17;;
4555;SDS011;2290;48.674;9.018;2022-12-07T01:37:37;6.07;;;3.70;;
4555;SDS011;2290;48.674;9.018;2022-12-07T01:40:06;6.57;;;4.27;;
4555;SDS011;2290;48.674;9.018;2022-12-07T01:42:33;7.00;;;4.10;;
4555;SDS011;2290;48.674;9.018;2022-12-07T01:45:25;11.00;;;5.30;;
4555;SDS011;2290;48.674;9.018;2022-12-07T01:48:05;8.13;;;4.10;;
4555;SDS011;2290;48.674;9.018;2022-12-07T01:50:31;9.20;;;4.83;;
4555;SDS011;2290;48.674;9.018;2022-12-07T01:52:58;6.37;;;4.07;;
4555;SDS011;2290;48.674;9.018;2022-12-07T01:55:26;8.10;;;4.10;;
4555;SDS011;2290;48.674;9.018;2022-12-07T01:57:53;7.60;;;4.67;;
4555;SDS011;2290;48.674;9.018;2022-12-07T02:00:20;7.50;;;4.00;;
4555;SDS011;2290;48.674;9.018;2022-12-07T02:02:47;8.90;;;3.93;;
4555;SDS011;2290;48.674;9.018;2022-12-07T02:05:17;11.03;;;5.30;;
4555;SDS011;2290;48.674;9.018;2022-12-07T02:07:43;9.10;;;4.63;;
4555;SDS011;2290;48.674;9.018;2022-12-07T02:10:19;8.03;;;4.93;;
4555;SDS011;2290;48.674;9.018;2022-12-07T02:12:47;6.40;;;4.07;;
4555;SDS011;2290;48.674;9.018;2022-12-07T02:15:16;6.10;;;3.80;;
4555;SDS011;2290;48.674;9.018;2022-12-07T02:18:00;7.13;;;4.23;;
4555;SDS011;2290;48.674;9.018;2022-12-07T02:20:39;9.13;;;4.30;;
4555;SDS011;2290;48.674;9.018;2022-12-07T02:31:29;8.37;;;3.90;;
4555;SDS011;2290;48.674;9.018;2022-12-07T02:34:09;7.07;;;4.47;;
4555;SDS011;2290;48.674;9.018;2022-12-07T02:37:00;8.80;;;4.43;;
4555;SDS011;2290;48.674;9.018;2022-12-07T02:39:37;7.30;;;4.50;;
4555;SDS011;2290;48.674;9.018;2022-12-07T02:42:19;6.73;;;3.70;;
4555;SDS011;2290;48.674;9.018;2022-12-07T02:44:53;5.57;;;3.37;;
4555;SDS011;2290;48.674;9.018;2022-12-07T02:47:19;6.87;;;3.93;;
4555;SDS011;2290;48.674;9.018;2022-12-07T02:49:48;7.60;;;4.57;;
4555;SDS011;2290;48.674;9.018;2022-12-07T02:52:15;6.77;;;3.70;;
4555;SDS011;2290;48.674;9.018;2022-12-07T02:54:40;6.70;;;3.83;;
4555;SDS011;2290;48.674;9.018;2022-12-07T03:05:25;8.33;;;4.00;;
4555;SDS011;2290;48.674;9.018;2022-12-07T03:08:13;6.30;;;3.97;;
4555;SDS011;2290;48.674;9.018;2022-12-07T03:10:56;11.33;;;3.63;;
4555;SDS011;2290;48.674;9.018;2022-12-07T03:16:05;5.73;;;3.97;;
4555;SDS011;2290;48.674;9.018;2022-12-07T03:19:13;7.20;;;3.47;;
4555;SDS011;2290;48.674;9.018;2022-12-07T03:21:47;5.73;;;3.63;;
4555;SDS011;2290;48.674;9.018;2022-12-07T03:24:19;9.23;;;3.20;;
4555;SDS011;2290;48.674;9.018;2022-12-07T03:26:52;5.97;;;3.80;;
4555;SDS011;2290;48.674;9.018;2022-12-07T03:29:30;8.70;;;4.30;;
4555;SDS011;2290;48.674;9.018;2022-12-07T03:32:08;7.77;;;3.73;;
4555;SDS011;2290;48.674;9.018;2022-12-07T03:34:41;9.43;;;3.70;;
4555;SDS011;2290;48.674;9.018;2022-12-07T03:42:44;7.30;;;4.17;;
4555;SDS011;2290;48.674;9.018;2022-12-07T03:45:10;7.27;;;4.17;;
4555;SDS011;2290;48.674;9.018;2022-12-07T03:50:44;7.20;;;4.03;;
4555;SDS011;2290;48.674;9.018;2022-12-07T03:53:24;4.77;;;3.77;;
4555;SDS011;2290;48.674;9.018;2022-12-07T03:56:02;6.43;;;4.00;;
4555;SDS011;2290;48.674;9.018;2022-12-07T03:58:29;7.63;;;4.60;;
4555;SDS011;2290;48.674;9.018;2022-12-07T04:00:55;8.53;;;4.63;;
4555;SDS011;2290;48.674;9.018;2022-12-07T04:03:21;8.97;;;4.10;;
4555;SDS011;2290;48.674;9.018;2022-12-07T04:05:47;6.63;;;4.27;;
4555;SDS011;2290;48.674;9.018;2022-12-07T04:08:13;6.43;;;3.43;;
4555;SDS011;2290;48.674;9.018;2022-12-07T04:10:39;8.17;;;4.17;;
4555;SDS011;2290;48.674;9.018;2022-12-07T04:13:04;6.80;;;3.77;;
4555;SDS011;2290;48.674;9.018;2022-12-07T04:15:30;7.67;;;3.87;;
4555;SDS011;2290;48.674;9.018;2022-12-07T04:17:55;4.80;;;3.50;;
4555;SDS011;2290;48.674;9.018;2022-12-07T04:20:21;6.10;;;3.80;;
4555;SDS011;2290;48.674;9.018;2022-12-07T04:22:47;6.90;;;3.93;;
4555;SDS011;2290;48.674;9.018;2022-12-07T04:25:12;5.77;;;3.57;;
4555;SDS011;2290;48.674;9.018;2022-12-07T04:27:38;7.70;;;4.10;;
4555;SDS011;2290;48.674;9.018;2022-12-07T04:30:05;6.20;;;3.70;;
4555;SDS011;2290;48.674;9.018;2022-12-07T04:32:31;7.27;;;4.00;;
4555;SDS011;2290;48.674;9.018;2022-12-07T04:34:57;6.53;;;4.00;;
4555;SDS011;2290;48.674;9.018;2022-12-07T04:37:23;3.73;;;3.00;;
4555;SDS011;2290;48.674;9.018;2022-12-07T04:39:50;5.77;;;3.47;;
4555;SDS011;2290;48.674;9.018;2022-12-07T04:42:15;4.67;;;3.20;;
4555;SDS011;2290;48.674;9.018;2022-12-07T04:44:41;6.43;;;3.47;;
4555;SDS011;2290;48.674;9.018;2022-12-07T04:47:07;5.70;;;3.63;;
4555;SDS011;2290;48.674;9.018;2022-12-07T04:49:32;6.20;;;3.50;;
4555;SDS011;2290;48.674;9.018;2022-12-07T04:51:58;7.53;;;3.57;;
4555;SDS011;2290;48.674;9.018;2022-12-07T04:54:23;7.40;;;3.33;;
4555;SDS011;2290;48.674;9.018;2022-12-07T04:56:49;6.73;;;3.60;;
4555;SDS011;2290;48.674;9.018;2022-12-07T04:59:16;6.30;;;4.07;;
4555;SDS011;2290;48.674;9.018;2022-12-07T05:01:42;5.80;;;3.47;;
4555;SDS011;2290;48.674;9.018;2022-12-07T05:04:09;5.07;;;3.10;;
4555;SDS011;2290;48.674;9.018;2022-12-07T05:06:35;6.90;;;3.67;;
4555;SDS011;2290;48.674;9.018;2022-12-07T05:09:01;6.40;;;3.50;;
4555;SDS011;2290;48.674;9.018;2022-12-07T05:11:28;5.37;;;3.77;;
4555;SDS011;2290;48.674;9.018;2022-12-07T05:14:03;6.13;;;3.67;;
4555;SDS011;2290;48.674;9.018;2022-12-07T05:16:31;5.90;;;3.60;;
4555;SDS011;2290;48.674;9.018;2022-12-07T05:18:57;4.90;;;3.33;;
4555;SDS011;2290;48.674;9.018;2022-12-07T05:21:23;6.23;;;3.03;;
4555;SDS011;2290;48.674;9.018;2022-12-07T05:23:48;4.00;;;2.90;;
4555;SDS011;2290;48.674;9.018;2022-12-07T05:26:14;7.30;;;3.40;;
4555;SDS011;2290;48.674;9.018;2022-12-07T05:28:40;5.80;;;3.63;;
4555;SDS011;2290;48.674;9.018;2022-12-07T05:31:06;6.67;;;3.63;;
4555;SDS011;2290;48.674;9.018;2022-12-07T05:33:31;6.13;;;3.50;;
4555;SDS011;2290;48.674;9.018;2022-12-07T05:35:57;7.33;;;3.13;;
4555;SDS011;2290;48.674;9.018;2022-12-07T05:38:22;6.73;;;3.67;;
4555;SDS011;2290;48.674;9.018;2022-12-07T05:40:48;6.63;;;3.37;;
4555;SDS011;2290;48.674;9.018;2022-12-07T05:43:13;7.37;;;3.50;;
4555;SDS011;2290;48.674;9.018;2022-12-07T05:45:39;5.67;;;3.00;;
4555;SDS011;2290;48.674;9.018;2022-12-07T05:48:05;5.83;;;3.03;;
4555;SDS011;2290;48.674;9.018;2022-12-07T05:50:30;4.83;;;2.90;;
4555;SDS011;2290;48.674;9.018;2022-12-07T05:52:56;4.53;;;2.80;;
4555;SDS011;2290;48.674;9.018;2022-12-07T05:55:21;5.33;;;2.80;;
4555;SDS011;2290;48.674;9.018;2022-12-07T05:57:47;5.47;;;3.60;;
4555;SDS011;2290;48.674;9.018;2022-12-07T06:00:31;6.30;;;2.93;;
4555;SDS011;2290;48.674;9.018;2022-12-07T06:02:57;4.73;;;2.97;;
4555;SDS011;2290;48.674;9.018;2022-12-07T06:05:23;7.90;;;3.60;;
4555;SDS011;2290;48.674;9.018;2022-12-07T06:07:49;3.73;;;2.90;;
4555;SDS011;2290;48.674;9.018;2022-12-07T06:10:16;6.80;;;3.47;;
4555;SDS011;2290;48.674;9.018;2022-12-07T06:12:41;6.07;;;3.30;;
4555;SDS011;2290;48.674;9.018;2022-12-07T06:15:10;7.60;;;3.63;;
4555;SDS011;2290;48.674;9.018;2022-12-07T06:17:38;5.67;;;3.27;;
4555;SDS011;2290;48.674;9.018;2022-12-07T06:20:05;5.67;;;3.50;;
4555;SDS011;2290;48.674;9.018;2022-12-07T06:22:31;7.37;;;3.83;;
4555;SDS011;2290;48.674;9.018;2022-12-07T06:24:56;5.83;;;3.13;;
4555;SDS011;2290;48.674;9.018;2022-12-07T06:27:22;5.43;;;3.63;;
4555;SDS011;2290;48.674;9.018;2022-12-07T06:29:47;5.53;;;3.27;;
4555;SDS011;2290;48.674;9.018;2022-12-07T06:32:13;7.03;;;3.17;;
4555;SDS011;2290;48.674;9.018;2022-12-07T06:34:39;6.77;;;3.67;;
4555;SDS011;2290;48.674;9.018;2022-12-07T06:37:05;5.40;;;3.77;;
4555;SDS011;2290;48.674;9.018;2022-12-07T06:39:30;4.73;;;3.20;;
4555;SDS011;2290;48.674;9.018;2022-12-07T06:41:56;6.80;;;3.17;;
4555;SDS011;2290;48.674;9.018;2022-12-07T06:44:23;7.33;;;3.50;;
4555;SDS011;2290;48.674;9.018;2022-12-07T06:46:49;10.17;;;3.70;;
4555;SDS011;2290;48.674;9.018;2022-12-07T06:49:15;7.63;;;3.97;;
4555;SDS011;2290;48.674;9.018;2022-12-07T06:51:42;6.90;;;3.60;;
4555;SDS011;2290;48.674;9.018;2022-12-07T06:54:08;8.43;;;4.00;;
4555;SDS011;2290;48.674;9.018;2022-12-07T06:56:34;5.37;;;3.33;;
4555;SDS011;2290;48.674;9.018;2022-12-07T06:59:00;9.17;;;3.47;;
4555;SDS011;2290;48.674;9.018;2022-12-07T07:01:26;7.23;;;3.47;;
4555;SDS011;2290;48.674;9.018;2022-12-07T07:03:51;6.33;;;3.40;;
4555;SDS011;2290;48.674;9.018;2022-12-07T07:06:19;6.10;;;3.73;;
4555;SDS011;2290;48.674;9.018;2022-12-07T07:08:44;6.50;;;3.67;;
4555;SDS011;2290;48.674;9.018;2022-12-07T07:11:10;5.70;;;3.50;;
4555;SDS011;2290;48.674;9.018;2022-12-07T07:13:36;5.53;;;3.70;;
4555;SDS011;2290;48.674;9.018;2022-12-07T07:16:02;7.93;;;4.33;;
4555;SDS011;2290;48.674;9.018;2022-12-07T07:18:28;7.63;;;4.10;;
4555;SDS011;2290;48.674;9.018;2022-12-07T07:20:54;6.80;;;3.50;;
4555;SDS011;2290;48.674;9.018;2022-12-07T07:23:21;6.80;;;3.97;;
4555;SDS011;2290;48.674;9.018;2022-12-07T07:25:47;7.30;;;3.87;;
4555;SDS011;2290;48.674;9.018;2022-12-07T07:28:13;6.57;;;3.77;;
4555;SDS011;2290;48.674;9.018;2022-12-07T07:30:40;8.97;;;3.70;;
4555;SDS011;2290;48.674;9.018;2022-12-07T07:33:05;10.83;;;3.70;;
4555;SDS011;2290;48.674;9.018;2022-12-07T07:35:32;7.40;;;3.80;;
4555;SDS011;2290;48.674;9.018;2022-12-07T07:37:58;6.63;;;3.40;;
4555;SDS011;2290;48.674;9.018;2022-12-07T07:40:24;8.13;;;3.90;;
4555;SDS011;2290;48.674;9.018;2022-12-07T07:42:51;5.23;;;3.40;;
4555;SDS011;2290;48.674;9.018;2022-12-07T07:45:18;5.63;;;3.30;;
4555;SDS011;2290;48.674;9.018;2022-12-07T07:47:44;8.17;;;4.53;;
4555;SDS011;2290;48.674;9.018;2022-12-07T07:50:10;6.10;;;2.90;;
4555;SDS011;2290;48.674;9.018;2022-12-07T07:52:36;4.07;;;2.97;;
4555;SDS011;2290;48.674;9.018;2022-12-07T07:55:02;5.87;;;3.27;;
4555;SDS011;2290;48.674;9.018;2022-12-07T07:57:28;5.77;;;3.10;;
4555;SDS011;2290;48.674;9.018;2022-12-07T07:59:53;5.23;;;3.30;;
4555;SDS011;2290;48.674;9.018;2022-12-07T08:02:19;5.00;;;3.30;;
4555;SDS011;2290;48.674;9.018;2022-12-07T08:04:45;7.07;;;3.53;;
4555;SDS011;2290;48.674;9.018;2022-12-07T08:07:13;7.50;;;2.93;;
4555;SDS011;2290;48.674;9.018;2022-12-07T08:09:39;5.13;;;3.10;;
4555;SDS011;2290;48.674;9.018;2022-12-07T08:12:05;5.70;;;3.07;;
4555;SDS011;2290;48.674;9.018;2022-12-07T08:14:31;7.60;;;3.00;;
4555;SDS011;2290;48.674;9.018;2022-12-07T08:16:57;6.93;;;3.10;;
4555;SDS011;2290;48.674;9.018;2022-12-07T08:19:23;4.20;;;2.70;;
4555;SDS011;2290;48.674;9.018;2022-12-07T08:21:49;5.13;;;3.00;;
4555;SDS011;2290;48.674;9.018;2022-12-07T08:24:14;4.50;;;2.90;;
4555;SDS011;2290;48.674;9.018;2022-12-07T08:26:40;3.57;;;2.80;;
4555;SDS011;2290;48.674;9.018;2022-12-07T08:29:07;4.07;;;2.90;;
4555;SDS011;2290;48.674;9.018;2022-12-07T08:31:33;4.67;;;2.83;;
4555;SDS011;2290;48.674;9.018;2022-12-07T08:33:59;7.70;;;3.40;;
4555;SDS011;2290;48.674;9.018;2022-12-07T08:36:24;6.20;;;3.00;;
4555;SDS011;2290;48.674;9.018;2022-12-07T08:38:50;5.03;;;3.30;;
4555;SDS011;2290;48.674;9.018;2022-12-07T08:41:16;5.30;;;2.63;;
4555;SDS011;2290;48.674;9.018;2022-12-07T08:43:41;5.57;;;2.87;;
4555;SDS011;2290;48.674;9.018;2022-12-07T08:46:24;4.90;;;2.90;;
4555;SDS011;2290;48.674;9.018;2022-12-07T08:49:06;5.70;;;2.60;;
4555;SDS011;2290;48.674;9.018;2022-12-07T08:51:38;4.37;;;2.30;;
4555;SDS011;2290;48.674;9.018;2022-12-07T08:54:06;5.90;;;3.10;;
4555;SDS011;2290;48.674;9.018;2022-12-07T08:56:35;5.50;;;2.77;;
4555;SDS011;2290;48.674;9.018;2022-12-07T08:59:01;8.07;;;2.80;;
4555;SDS011;2290;48.674;9.018;2022-12-07T09:01:27;4.63;;;2.50;;
4555;SDS011;2290;48.674;9.018;2022-12-07T09:03:53;4.20;;;2.43;;
4555;SDS011;2290;48.674;9.018;2022-12-07T09:06:19;6.47;;;2.53;;
4555;SDS011;2290;48.674;9.018;2022-12-07T09:08:46;5.50;;;2.80;;
4555;SDS011;2290;48.674;9.018;2022-12-07T09:11:16;4.80;;;3.00;;
4555;SDS011;2290;48.674;9.018;2022-12-07T09:13:41;3.70;;;2.90;;
4555;SDS011;2290;48.674;9.018;2022-12-07T09:16:07;4.70;;;3.30;;
4555;SDS011;2290;48.674;9.018;2022-12-07T09:18:32;3.50;;;2.53;;
4555;SDS011;2290;48.674;9.018;2022-12-07T09:20:58;5.60;;;2.87;;
4555;SDS011;2290;48.674;9.018;2022-12-07T09:23:24;6.43;;;3.20;;
4555;SDS011;2290;48.674;9.018;2022-12-07T09:25:50;3.77;;;2.47;;
4555;SDS011;2290;48.674;9.018;2022-12-07T09:28:15;5.50;;;2.90;;
4555;SDS011;2290;48.674;9.018;2022-12-07T09:30:47;6.53;;;3.37;;
4555;SDS011;2290;48.674;9.018;2022-12-07T09:33:13;5.57;;;2.70;;
4555;SDS011;2290;48.674;9.018;2022-12-07T09:35:46;3.53;;;2.13;;
4555;SDS011;2290;48.674;9.018;2022-12-07T09:38:15;5.10;;;2.87;;
4555;SDS011;2290;48.674;9.018;2022-12-07T09:40:41;3.97;;;2.70;;
4555;SDS011;2290;48.674;9.018;2022-12-07T09:43:21;4.70;;;2.60;;
4555;SDS011;2290;48.674;9.018;2022-12-07T09:45:51;4.30;;;2.90;;
4555;SDS011;2290;48.674;9.018;2022-12-07T09:48:20;4.47;;;2.83;;
4555;SDS011;2290;48.674;9.018;2022-12-07T09:50:50;6.73;;;3.03;;
4555;SDS011;2290;48.674;9.018;2022-12-07T09:53:25;4.20;;;2.97;;
4555;SDS011;2290;48.674;9.018;2022-12-07T09:55:53;3.70;;;2.60;;
4555;SDS011;2290;48.674;9.018;2022-12-07T09:58:20;4.47;;;2.43;;
4555;SDS011;2290;48.674;9.018;2022-12-07T10:00:50;4.20;;;2.67;;
4555;SDS011;2290;48.674;9.018;2022-12-07T10:03:21;4.03;;;3.03;;
4555;SDS011;2290;48.674;9.018;2022-12-07T10:05:47;4.97;;;2.57;;
4555;SDS011;2290;48.674;9.018;2022-12-07T10:08:15;6.50;;;3.07;;
4555;SDS011;2290;48.674;9.018;2022-12-07T10:10:42;7.10;;;3.03;;
4555;SDS011;2290;48.674;9.018;2022-12-07T10:13:11;4.00;;;2.60;;
4555;SDS011;2290;48.674;9.018;2022-12-07T10:15:54;4.93;;;3.10;;
4555;SDS011;2290;48.674;9.018;2022-12-07T10:18:26;4.80;;;2.60;;
4555;SDS011;2290;48.674;9.018;2022-12-07T10:21:03;4.30;;;2.70;;
4555;SDS011;2290;48.674;9.018;2022-12-07T10:23:41;4.23;;;2.53;;
4555;SDS011;2290;48.674;9.018;2022-12-07T10:26:27;3.97;;;2.57;;
4555;SDS011;2290;48.674;9.018;2022-12-07T10:28:54;5.03;;;2.70;;
4555;SDS011;2290;48.674;9.018;2022-12-07T10:31:21;7.10;;;2.97;;
4555;SDS011;2290;48.674;9.018;2022-12-07T10:33:54;4.37;;;2.80;;
4555;SDS011;2290;48.674;9.018;2022-12-07T10:36:35;3.93;;;2.83;;
4555;SDS011;2290;48.674;9.018;2022-12-07T10:39:09;6.47;;;3.23;;
4555;SDS011;2290;48.674;9.018;2022-12-07T10:44:26;5.10;;;3.03;;
4555;SDS011;2290;48.674;9.018;2022-12-07T10:47:18;4.23;;;2.83;;
4555;SDS011;2290;48.674;9.018;2022-12-07T10:52:52;4.00;;;2.70;;
4555;SDS011;2290;48.674;9.018;2022-12-07T11:01:23;4.47;;;2.57;;
4555;SDS011;2290;48.674;9.018;2022-12-07T11:20:32;5.70;;;3.00;;
4555;SDS011;2290;48.674;9.018;2022-12-07T11:26:02;3.67;;;2.80;;
4555;SDS011;2290;48.674;9.018;2022-12-07T11:32:00;2.93;;;2.13;;
4555;SDS011;2290;48.674;9.018;2022-12-07T11:37:33;3.27;;;2.30;;
4555;SDS011;2290;48.674;9.018;2022-12-07T11:40:02;8.27;;;2.80;;
4555;SDS011;2290;48.674;9.018;2022-12-07T11:42:55;4.50;;;2.93;;
4555;SDS011;2290;48.674;9.018;2022-12-07T11:45:31;5.80;;;2.67;;
4555;SDS011;2290;48.674;9.018;2022-12-07T11:48:00;3.80;;;2.30;;
4555;SDS011;2290;48.674;9.018;2022-12-07T11:55:54;3.37;;;2.30;;
4555;SDS011;2290;48.674;9.018;2022-12-07T12:06:34;2.50;;;2.07;;
4555;SDS011;2290;48.674;9.018;2022-12-07T12:09:09;4.27;;;2.57;;
4555;SDS011;2290;48.674;9.018;2022-12-07T12:22:45;3.60;;;2.50;;
4555;SDS011;2290;48.674;9.018;2022-12-07T12:27:46;5.97;;;2.73;;
4555;SDS011;2290;48.674;9.018;2022-12-07T12:30:25;4.97;;;2.50;;
4555;SDS011;2290;48.674;9.018;2022-12-07T12:33:01;3.90;;;2.00;;
4555;SDS011;2290;48.674;9.018;2022-12-07T12:35:48;3.60;;;2.40;;
4555;SDS011;2290;48.674;9.018;2022-12-07T12:50:34;3.20;;;2.00;;
4555;SDS011;2290;48.674;9.018;2022-12-07T12:52:55;3.40;;;2.13;;
4555;SDS011;2290;48.674;9.018;2022-12-07T12:55:54;2.50;;;1.70;;
4555;SDS011;2290;48.674;9.018;2022-12-07T12:58:34;2.90;;;2.00;;
4555;SDS011;2290;48.674;9.018;2022-12-07T13:04:25;2.87;;;2.10;;
4555;SDS011;2290;48.674;9.018;2022-12-07T13:06:55;4.33;;;2.07;;
4555;SDS011;2290;48.674;9.018;2022-12-07T13:09:28;3.77;;;2.10;;
4555;SDS011;2290;48.674;9.018;2022-12-07T13:12:11;2.73;;;2.00;;
4555;SDS011;2290;48.674;9.018;2022-12-07T13:19:58;2.80;;;1.90;;
4555;SDS011;2290;48.674;9.018;2022-12-07T13:30:44;2.50;;;2.03;;
4555;SDS011;2290;48.674;9.018;2022-12-07T13:33:36;4.17;;;2.17;;
4555;SDS011;2290;48.674;9.018;2022-12-07T13:36:02;3.67;;;2.33;;
4555;SDS011;2290;48.674;9.018;2022-12-07T13:38:32;5.90;;;3.00;;
4555;SDS011;2290;48.674;9.018;2022-12-07T13:41:16;3.67;;;2.23;;
4555;SDS011;2290;48.674;9.018;2022-12-07T13:51:50;1.93;;;1.67;;
4555;SDS011;2290;48.674;9.018;2022-12-07T13:54:16;3.60;;;2.10;;
4555;SDS011;2290;48.674;9.018;2022-12-07T13:56:43;2.80;;;2.10;;
4555;SDS011;2290;48.674;9.018;2022-12-07T13:59:19;4.50;;;2.23;;
4555;SDS011;2290;48.674;9.018;2022-12-07T14:01:48;5.00;;;2.60;;
4555;SDS011;2290;48.674;9.018;2022-12-07T14:06:57;5.30;;;2.37;;
4555;SDS011;2290;48.674;9.018;2022-12-07T14:09:23;4.43;;;2.27;;
4555;SDS011;2290;48.674;9.018;2022-12-07T14:11:52;4.00;;;2.13;;
4555;SDS011;2290;48.674;9.018;2022-12-07T14:14:20;3.50;;;2.23;;
4555;SDS011;2290;48.674;9.018;2022-12-07T14:17:11;4.93;;;2.63;;
4555;SDS011;2290;48.674;9.018;2022-12-07T14:19:42;5.50;;;2.47;;
4555;SDS011;2290;48.674;9.018;2022-12-07T14:22:29;4.47;;;2.10;;
4555;SDS011;2290;48.674;9.018;2022-12-07T14:27:39;3.80;;;2.57;;
4555;SDS011;2290;48.674;9.018;2022-12-07T14:30:15;6.33;;;2.50;;
4555;SDS011;2290;48.674;9.018;2022-12-07T14:32:42;4.70;;;2.67;;
4555;SDS011;2290;48.674;9.018;2022-12-07T14:35:13;3.90;;;2.23;;
4555;SDS011;2290;48.674;9.018;2022-12-07T14:37:42;6.40;;;3.50;;
4555;SDS011;2290;48.674;9.018;2022-12-07T14:40:12;4.13;;;2.63;;
4555;SDS011;2290;48.674;9.018;2022-12-07T14:42:39;3.33;;;2.40;;
4555;SDS011;2290;48.674;9.018;2022-12-07T14:45:11;4.03;;;2.30;;
4555;SDS011;2290;48.674;9.018;2022-12-07T14:47:39;3.43;;;2.47;;
4555;SDS011;2290;48.674;9.018;2022-12-07T14:50:05;2.90;;;2.30;;
4555;SDS011;2290;48.674;9.018;2022-12-07T14:52:31;3.40;;;2.23;;
4555;SDS011;2290;48.674;9.018;2022-12-07T14:54:58;5.07;;;2.40;;
4555;SDS011;2290;48.674;9.018;2022-12-07T14:57:23;3.90;;;2.33;;
4555;SDS011;2290;48.674;9.018;2022-12-07T14:59:49;3.83;;;2.53;;
4555;SDS011;2290;48.674;9.018;2022-12-07T15:02:14;5.73;;;2.90;;
4555;SDS011;2290;48.674;9.018;2022-12-07T15:04:40;6.17;;;3.40;;
4555;SDS011;2290;48.674;9.018;2022-12-07T15:07:10;4.33;;;2.87;;
4555;SDS011;2290;48.674;9.018;2022-12-07T15:09:44;5.47;;;2.63;;
4555;SDS011;2290;48.674;9.018;2022-12-07T15:12:10;5.17;;;3.10;;
4555;SDS011;2290;48.674;9.018;2022-12-07T15:14:36;6.93;;;2.80;;
4555;SDS011;2290;48.674;9.018;2022-12-07T15:17:01;6.00;;;2.80;;
4555;SDS011;2290;48.674;9.018;2022-12-07T15:19:27;3.83;;;2.53;;
4555;SDS011;2290;48.674;9.018;2022-12-07T15:21:53;3.20;;;2.60;;
4555;SDS011;2290;48.674;9.018;2022-12-07T15:24:19;4.27;;;2.70;;
4555;SDS011;2290;48.674;9.018;2022-12-07T15:26:45;4.00;;;2.97;;
4555;SDS011;2290;48.674;9.018;2022-12-07T15:29:11;4.17;;;2.73;;
4555;SDS011;2290;48.674;9.018;2022-12-07T15:31:37;5.23;;;2.87;;
4555;SDS011;2290;48.674;9.018;2022-12-07T15:34:04;5.10;;;3.03;;
4555;SDS011;2290;48.674;9.018;2022-12-07T15:36:30;7.53;;;3.27;;
4555;SDS011;2290;48.674;9.018;2022-12-07T15:38:57;4.67;;;2.43;;
4555;SDS011;2290;48.674;9.018;2022-12-07T15:41:23;5.20;;;2.90;;
4555;SDS011;2290;48.674;9.018;2022-12-07T15:43:48;5.73;;;2.93;;
4555;SDS011;2290;48.674;9.018;2022-12-07T15:46:33;4.23;;;3.00;;
4555;SDS011;2290;48.674;9.018;2022-12-07T15:49:04;5.80;;;3.53;;
4555;SDS011;2290;48.674;9.018;2022-12-07T15:51:34;7.00;;;3.90;;
4555;SDS011;2290;48.674;9.018;2022-12-07T15:53:59;6.97;;;3.90;;
4555;SDS011;2290;48.674;9.018;2022-12-07T15:56:25;5.60;;;3.50;;
4555;SDS011;2290;48.674;9.018;2022-12-07T15:58:50;4.50;;;3.20;;
4555;SDS011;2290;48.674;9.018;2022-12-07T16:01:17;9.63;;;4.50;;
4555;SDS011;2290;48.674;9.018;2022-12-07T16:03:44;5.63;;;3.70;;
4555;SDS011;2290;48.674;9.018;2022-12-07T16:06:10;7.10;;;4.00;;
4555;SDS011;2290;48.674;9.018;2022-12-07T16:08:36;8.73;;;3.80;;
4555;SDS011;2290;48.674;9.018;2022-12-07T16:11:06;8.67;;;4.80;;
4555;SDS011;2290;48.674;9.018;2022-12-07T16:13:32;8.20;;;3.83;;
4555;SDS011;2290;48.674;9.018;2022-12-07T16:16:01;6.23;;;3.97;;
4555;SDS011;2290;48.674;9.018;2022-12-07T16:18:28;8.80;;;3.83;;
4555;SDS011;2290;48.674;9.018;2022-12-07T16:20:54;5.80;;;3.27;;
4555;SDS011;2290;48.674;9.018;2022-12-07T16:23:19;5.97;;;3.83;;
4555;SDS011;2290;48.674;9.018;2022-12-07T16:25:45;4.63;;;3.20;;
4555;SDS011;2290;48.674;9.018;2022-12-07T16:28:11;9.90;;;5.10;;
4555;SDS011;2290;48.674;9.018;2022-12-07T16:30:36;5.60;;;3.67;;
4555;SDS011;2290;48.674;9.018;2022-12-07T16:33:02;5.50;;;2.80;;
4555;SDS011;2290;48.674;9.018;2022-12-07T16:35:27;8.80;;;3.70;;
4555;SDS011;2290;48.674;9.018;2022-12-07T16:37:53;6.87;;;3.40;;
4555;SDS011;2290;48.674;9.018;2022-12-07T16:40:18;5.03;;;3.10;;
4555;SDS011;2290;48.674;9.018;2022-12-07T16:42:44;5.73;;;3.20;;
4555;SDS011;2290;48.674;9.018;2022-12-07T16:45:09;7.47;;;3.67;;
4555;SDS011;2290;48.674;9.018;2022-12-07T16:47:39;6.63;;;3.43;;
4555;SDS011;2290;48.674;9.018;2022-12-07T16:50:05;6.27;;;3.60;;
4555;SDS011;2290;48.674;9.018;2022-12-07T16:52:32;5.20;;;3.30;;
4555;SDS011;2290;48.674;9.018;2022-12-07T16:54:58;4.80;;;2.90;;
4555;SDS011;2290;48.674;9.018;2022-12-07T16:57:24;4.10;;;2.93;;
4555;SDS011;2290;48.674;9.018;2022-12-07T16:59:50;7.27;;;3.90;;
4555;SDS011;2290;48.674;9.018;2022-12-07T17:02:17;8.00;;;3.20;;
4555;SDS011;2290;48.674;9.018;2022-12-07T17:04:43;5.90;;;3.30;;
4555;SDS011;2290;48.674;9.018;2022-12-07T17:07:09;7.67;;;3.83;;
4555;SDS011;2290;48.674;9.018;2022-12-07T17:09:35;8.27;;;4.17;;
4555;SDS011;2290;48.674;9.018;2022-12-07T17:12:01;5.87;;;3.60;;
4555;SDS011;2290;48.674;9.018;2022-12-07T17:14:27;8.20;;;3.47;;
4555;SDS011;2290;48.674;9.018;2022-12-07T17:17:11;6.40;;;3.33;;
4555;SDS011;2290;48.674;9.018;2022-12-07T17:19:36;6.40;;;3.57;;
4555;SDS011;2290;48.674;9.018;2022-12-07T17:22:02;5.00;;;3.43;;
4555;SDS011;2290;48.674;9.018;2022-12-07T17:24:27;5.20;;;3.17;;
4555;SDS011;2290;48.674;9.018;2022-12-07T17:26:53;6.17;;;3.93;;
4555;SDS011;2290;48.674;9.018;2022-12-07T17:29:19;7.60;;;4.23;;
4555;SDS011;2290;48.674;9.018;2022-12-07T17:31:45;7.00;;;3.43;;
4555;SDS011;2290;48.674;9.018;2022-12-07T17:34:12;6.77;;;3.90;;
4555;SDS011;2290;48.674;9.018;2022-12-07T17:36:38;7.30;;;3.83;;
4555;SDS011;2290;48.674;9.018;2022-12-07T17:39:08;5.57;;;3.67;;
4555;SDS011;2290;48.674;9.018;2022-12-07T17:41:35;6.63;;;3.43;;